This is the latest recevied weather packets stored in our database for station/object HS1WDC-1. If no packets are shown the sender has not sent any weather packets the latest 10 day(s).
| Time | Temp. | Humidity | Pressure | Rain* | Wind** | Luminosity | Snow |
|---|---|---|---|---|---|---|---|
| 1778035503 | 38.33° C | 47% | 1009 hPa | - | - | 0 W/m² | - |
| 1778034579 | 37.22° C | 50% | 1009 hPa | - | - | 0 W/m² | - |
| 1778033654 | 37.22° C | 50% | 1009 hPa | - | - | 0 W/m² | - |
| 1778032730 | 37.22° C | 52% | 1009 hPa | - | - | 0 W/m² | - |
| 1778031806 | 36.67° C | 53% | 1009 hPa | - | - | 0 W/m² | - |
| 1778030881 | 36.11° C | 54% | 1009 hPa | - | - | 0 W/m² | - |
| 1778029957 | 35.56° C | 55% | 1009 hPa | - | - | 0 W/m² | - |
| 1778029033 | 35.56° C | 56% | 1009 hPa | - | - | 0 W/m² | - |
| 1778028108 | 34.44° C | 57% | 1008 hPa | - | - | 0 W/m² | - |
| 1778027184 | 35° C | 57% | 1008 hPa | - | - | 0 W/m² | - |
| 1778026259 | 34.44° C | 58% | 1008 hPa | - | - | 0 W/m² | - |
| 1778025335 | 34.44° C | 58% | 1008 hPa | - | - | 0 W/m² | - |
| 1778024411 | 33.33° C | 60% | 1008 hPa | - | - | 0 W/m² | - |
| 1778023486 | 33.33° C | 61% | 1008 hPa | - | - | 0 W/m² | - |
| 1778022562 | 33.33° C | 60% | 1007 hPa | - | - | 0 W/m² | - |
| 1778021638 | 33.89° C | 58% | 1007 hPa | - | - | 0 W/m² | - |
| 1778020713 | 33.89° C | 58% | 1007 hPa | - | - | 0 W/m² | - |
| 1778019790 | 33.33° C | 59% | 1007 hPa | - | - | 0 W/m² | - |
| 1778018865 | 33.89° C | 58% | 1007 hPa | - | - | 0 W/m² | - |
| 1778017941 | 33.89° C | 58% | 1007 hPa | - | - | 0 W/m² | - |
| 1778017016 | 33.89° C | 57% | 1007 hPa | - | - | 0 W/m² | - |
| 1778016092 | 33.33° C | 59% | 1007 hPa | - | - | 0 W/m² | - |
| 1778015167 | 33.89° C | 58% | 1007 hPa | - | - | 0 W/m² | - |
| 1778014243 | 33.89° C | 57% | 1007 hPa | - | - | 0 W/m² | - |
| 1778013319 | 33.89° C | 56% | 1007 hPa | - | - | 0 W/m² | - |
* Rain since midnight (hover to see other rain measurements)
** Current wind speed in m/s (hover to see current wind gust speed)